Time;durP1;ratioP1;P1;durP2;ratioP2;P2;SDS_P1;SDS_P2;PMS_P1;PMS_P2;Temp;Humidity;BMP_temperature;BMP_pressure;BME280_temperature;BME280_humidity;BME280_pressure;Samples;Min_cycle;Max_cycle;Signal;HPM_P1;HPM_P2
2023/06/22 00:01:16;;;;;;;18.10;8.88;;;;;;;-144.47;78.77;52671.38;4986694;28;20053;-72
2023/06/22 00:03:41;;;;;;;16.13;9.05;;;;;;;-144.47;79.40;52661.44;5007975;28;20038;-73
2023/06/22 00:06:06;;;;;;;10.82;7.57;;;;;;;-144.47;79.14;52651.53;5010271;28;20026;-74
2023/06/22 00:08:32;;;;;;;13.18;7.78;;;;;;;-144.47;79.92;52669.41;5010398;28;20053;-74
2023/06/22 00:10:57;;;;;;;11.85;7.85;;;;;;;-144.47;77.62;52647.56;4992747;28;20026;-74
2023/06/22 00:13:22;;;;;;;14.02;7.60;;;;;;;-144.47;78.34;52661.44;4992222;28;20014;-74
2023/06/22 00:15:48;;;;;;;15.48;7.78;;;;;;;-144.47;79.49;52655.50;5010123;28;20156;-73
2023/06/22 00:18:13;;;;;;;12.82;8.63;;;;;;;-144.47;79.14;52641.59;5009562;28;20052;-73
2023/06/22 00:20:39;;;;;;;15.27;7.85;;;;;;;-144.47;78.89;52665.44;5010293;28;20409;-72
2023/06/22 00:23:09;;;;;;;14.52;7.95;;;;;;;-144.47;78.31;52651.53;5010211;28;20040;-76
2023/06/22 00:25:39;;;;;;;13.05;7.78;;;;;;;-144.47;78.55;52679.31;5009803;28;20028;-73
2023/06/22 00:28:05;;;;;;;15.30;7.88;;;;;;;-144.47;79.31;52669.41;5009855;28;20029;-74
2023/06/22 00:30:32;;;;;;;13.07;8.35;;;;;;;-144.47;79.25;52649.53;5010253;28;20034;-74
2023/06/22 00:32:58;;;;;;;13.20;8.65;;;;;;;-144.47;79.31;52653.50;5009368;28;20018;-76
2023/06/22 00:35:28;;;;;;;16.50;7.88;;;;;;;-144.47;79.82;52681.31;5009653;28;20192;-74
2023/06/22 00:38:00;;;;;;;12.95;8.00;;;;;;;-144.47;79.53;52655.50;5009621;28;20045;-75
2023/06/22 00:40:30;;;;;;;15.07;9.07;;;;;;;-144.47;80.61;52665.44;5010330;28;20014;-73
2023/06/22 00:42:56;;;;;;;16.00;8.50;;;;;;;-144.47;81.20;52655.50;4991803;28;20021;-72
2023/06/22 00:45:25;;;;;;;13.40;8.52;;;;;;;-144.47;82.84;52629.69;5009873;28;20047;-73
2023/06/22 00:47:55;;;;;;;17.42;8.48;;;;;;;-144.47;83.87;52685.28;5009621;28;20090;-72
2023/06/22 00:50:26;;;;;;;16.85;9.07;;;;;;;-144.47;83.97;52661.44;5002719;28;20033;-72
2023/06/22 00:52:56;;;;;;;15.73;9.32;;;;;;;-144.47;83.89;52649.53;5009836;28;20183;-72
2023/06/22 00:55:22;;;;;;;13.77;9.32;;;;;;;-144.47;84.31;52661.44;4991488;28;20042;-73
2023/06/22 00:57:48;;;;;;;16.58;9.10;;;;;;;-144.47;84.98;52635.63;5009871;28;20594;-72
2023/06/22 01:00:19;;;;;;;13.65;9.02;;;;;;;-144.47;85.28;52657.47;5005189;28;20038;-71
2023/06/22 01:02:45;;;;;;;18.95;9.43;;;;;;;-144.47;86.24;52649.53;5008685;28;20510;-70
2023/06/22 01:05:15;;;;;;;15.05;9.32;;;;;;;-144.47;85.71;52669.41;4990948;28;20037;-72
2023/06/22 01:07:51;;;;;;;19.42;9.07;;;;;;;-144.47;85.97;52683.31;5009386;28;20104;-74
2023/06/22 01:10:35;;;;;;;13.35;8.55;;;;;;;-144.47;86.74;52673.38;5009630;28;20172;-71
2023/06/22 01:13:37;;;;;;;14.25;8.57;;;;;;;-144.47;86.42;52659.47;5009559;28;20026;-74
2023/06/22 01:16:09;;;;;;;16.55;8.90;;;;;;;-144.47;87.42;52629.69;5009156;28;20022;-75
2023/06/22 01:18:37;;;;;;;14.32;8.73;;;;;;;-144.47;88.19;52661.44;5008951;28;20026;-73
2023/06/22 01:21:09;;;;;;;15.93;8.63;;;;;;;-144.47;87.56;52681.31;5009664;28;20018;-73
2023/06/22 01:23:55;;;;;;;11.63;8.38;;;;;;;-144.47;87.71;52649.53;5008743;28;20068;-74
2023/06/22 01:26:34;;;;;;;10.93;7.63;;;;;;;-144.47;88.71;52649.53;5009235;28;20052;-74
2023/06/22 01:29:03;;;;;;;16.35;9.30;;;;;;;-144.47;89.26;52663.44;5009481;28;20037;-74
2023/06/22 01:31:31;;;;;;;15.90;9.05;;;;;;;-144.47;89.88;52651.53;5009046;28;20293;-73
2023/06/22 01:34:03;;;;;;;13.48;9.75;;;;;;;-144.47;89.90;52669.41;5008619;28;20037;-73
2023/06/22 01:36:30;;;;;;;13.80;9.07;;;;;;;-144.47;90.10;52665.44;5008960;28;20388;-74
2023/06/22 01:38:57;;;;;;;13.15;8.68;;;;;;;-144.47;90.50;52663.44;5009031;28;20029;-72
2023/06/22 01:41:26;;;;;;;16.73;9.63;;;;;;;-144.47;91.10;52653.50;5009115;28;20052;-74
2023/06/22 01:43:53;;;;;;;14.55;9.15;;;;;;;-144.47;91.36;52657.47;5008778;28;20116;-73
2023/06/22 01:46:19;;;;;;;14.75;8.90;;;;;;;-144.47;92.23;52621.72;5008838;28;20049;-70
2023/06/22 01:48:46;;;;;;;27.83;9.90;;;;;;;-144.47;91.99;52665.44;5008755;28;20025;-75
2023/06/22 01:51:15;;;;;;;16.52;9.73;;;;;;;-144.47;90.77;52649.53;5008958;28;20029;-74
2023/06/22 01:53:41;;;;;;;18.38;9.65;;;;;;;-144.47;90.83;52663.44;5008898;28;20029;-74
2023/06/22 01:56:06;;;;;;;13.00;8.82;;;;;;;-144.47;90.69;52643.56;5009032;28;20022;-75
2023/06/22 01:58:32;;;;;;;14.52;9.25;;;;;;;-144.47;91.47;52657.47;5008979;28;20033;-74
2023/06/22 02:01:10;;;;;;;13.95;9.40;;;;;;;-144.47;91.72;52631.66;5001563;28;20014;-75
2023/06/22 02:03:41;;;;;;;14.75;8.90;;;;;;;-144.47;92.29;52635.63;5011211;28;20034;-75
2023/06/22 02:06:16;;;;;;;14.43;9.18;;;;;;;-144.47;92.10;52669.41;4995067;28;20022;-73
2023/06/22 02:08:48;;;;;;;14.95;9.35;;;;;;;-144.47;92.72;52657.47;5012534;28;20751;-71
2023/06/22 02:11:16;;;;;;;14.50;8.90;;;;;;;-144.47;92.74;52669.41;5012974;28;20021;-74
2023/06/22 02:13:43;;;;;;;13.98;9.13;;;;;;;-144.47;93.01;52665.44;5012106;28;20235;-73
2023/06/22 02:16:13;;;;;;;17.95;10.02;;;;;;;-144.47;92.90;52665.44;4994722;28;20029;-76
2023/06/22 02:18:40;;;;;;;14.02;8.82;;;;;;;-144.47;93.13;52653.50;5011768;28;20097;-73
2023/06/22 02:21:05;;;;;;;15.88;9.32;;;;;;;-144.47;93.07;52651.53;5012802;28;20375;-74
2023/06/22 02:23:32;;;;;;;23.30;10.50;;;;;;;-144.47;93.61;52665.44;5011726;28;20471;-75
2023/06/22 02:25:58;;;;;;;15.52;9.32;;;;;;;-144.47;95.06;52651.53;5012307;28;20455;-74
2023/06/22 02:28:23;;;;;;;17.25;10.93;;;;;;;-144.47;94.68;52645.56;5012520;28;20446;-75
2023/06/22 02:30:49;;;;;;;18.45;10.05;;;;;;;-144.47;94.84;52657.47;5012350;28;20040;-76
2023/06/22 02:33:14;;;;;;;17.27;8.65;;;;;;;-144.47;95.93;52657.47;5013095;28;20052;-73
2023/06/22 02:35:45;;;;;;;19.40;10.32;;;;;;;-144.47;95.87;52643.56;5012207;28;20033;-74
2023/06/22 02:38:10;;;;;;;17.20;9.77;;;;;;;-144.47;95.54;52657.47;4999963;28;20387;-75
2023/06/22 02:40:36;;;;;;;15.00;9.45;;;;;;;-144.47;95.92;52671.38;5012078;28;20125;-74
2023/06/22 02:43:02;;;;;;;15.52;9.95;;;;;;;-144.47;96.22;52635.63;5011910;28;20028;-75
2023/06/22 02:45:28;;;;;;;18.35;10.05;;;;;;;-144.47;96.47;52645.56;5011849;28;20022;-73
2023/06/22 02:47:55;;;;;;;15.75;9.32;;;;;;;-144.47;96.59;52643.56;5012393;28;20024;-71
2023/06/22 02:50:20;;;;;;;15.57;8.98;;;;;;;-144.47;97.62;52657.47;5011357;28;20026;-74
2023/06/22 02:52:46;;;;;;;16.50;9.07;;;;;;;-144.47;98.03;52655.50;5012108;28;20061;-75
2023/06/22 02:55:11;;;;;;;19.60;9.38;;;;;;;-144.47;97.93;52635.63;5012246;28;20083;-74
2023/06/22 02:57:37;;;;;;;15.82;9.25;;;;;;;-144.47;98.81;52659.47;5012065;28;20025;-74
2023/06/22 03:00:17;;;;;;;13.40;8.98;;;;;;;-144.47;99.45;52639.59;5007911;28;20093;-75
2023/06/22 03:02:47;;;;;;;17.08;9.35;;;;;;;-144.47;99.13;52663.44;5010078;28;20095;-75
2023/06/22 03:05:14;;;;;;;13.95;8.93;;;;;;;-144.47;99.53;52645.56;5013755;28;20064;-77
2023/06/22 03:07:45;;;;;;;17.30;10.57;;;;;;;-144.47;99.64;52643.56;5011464;28;20045;-74
2023/06/22 03:10:12;;;;;;;14.90;9.27;;;;;;;-144.47;100.00;52657.47;5011489;28;20108;-69
2023/06/22 03:12:38;;;;;;;15.30;9.90;;;;;;;-144.47;100.00;52649.53;5011735;28;20021;-75
2023/06/22 03:15:12;;;;;;;16.42;9.95;;;;;;;-144.47;100.00;52663.44;5010863;28;20018;-72
2023/06/22 03:17:39;;;;;;;13.75;9.80;;;;;;;-144.47;100.00;52655.50;5012043;28;20029;-75
2023/06/22 03:20:11;;;;;;;17.75;9.65;;;;;;;-144.47;100.00;52649.53;5010737;28;20045;-75
2023/06/22 03:22:38;;;;;;;16.25;10.82;;;;;;;-144.47;100.00;52673.38;4982472;28;20053;-73
2023/06/22 03:25:04;;;;;;;15.85;9.63;;;;;;;-144.47;100.00;52657.47;5009658;28;20045;-74
2023/06/22 03:27:29;;;;;;;17.48;10.75;;;;;;;-144.47;100.00;52677.34;5011128;28;20061;-69
2023/06/22 03:29:57;;;;;;;16.67;10.57;;;;;;;-144.47;100.00;52653.50;5011773;28;20021;-73
2023/06/22 03:32:22;;;;;;;27.40;10.52;;;;;;;-144.47;100.00;52663.44;5011121;28;20026;-74
2023/06/22 03:34:48;;;;;;;18.95;10.27;;;;;;;-144.47;99.91;52651.53;5010957;28;20379;-75
2023/06/22 03:37:16;;;;;;;16.23;10.77;;;;;;;-144.47;100.00;52671.38;5006423;28;20151;-69
2023/06/22 03:39:42;;;;;;;14.88;9.82;;;;;;;-144.47;100.00;52683.31;5010408;28;20030;-73
2023/06/22 03:42:08;;;;;;;16.52;10.82;;;;;;;-144.47;100.00;52653.50;5011412;28;20057;-72
2023/06/22 03:44:35;;;;;;;19.85;10.88;;;;;;;-144.47;100.00;52651.53;5009826;28;20022;-70
2023/06/22 03:47:02;;;;;;;17.50;9.88;;;;;;;-144.47;100.00;52679.31;4982187;28;20509;-76
2023/06/22 03:49:27;;;;;;;18.88;10.55;;;;;;;-144.47;100.00;52661.44;5009625;28;20034;-73
2023/06/22 03:51:52;;;;;;;18.33;10.63;;;;;;;-144.47;99.93;52673.38;5010784;28;20079;-75
2023/06/22 03:54:18;;;;;;;20.83;9.93;;;;;;;-144.47;99.19;52661.44;4992906;28;20025;-74
2023/06/22 03:56:43;;;;;;;18.30;10.48;;;;;;;-144.47;98.60;52691.25;5010976;28;20077;-70
2023/06/22 03:59:09;;;;;;;15.45;10.40;;;;;;;-144.47;98.53;52653.50;5010318;28;20412;-70
2023/06/22 04:01:35;;;;;;;17.83;10.05;;;;;;;-144.47;98.01;52665.44;4999239;28;20026;-72
2023/06/22 04:04:00;;;;;;;16.30;10.48;;;;;;;-144.47;97.37;52649.53;5010602;28;20036;-74
2023/06/22 04:06:26;;;;;;;19.35;10.68;;;;;;;-144.47;96.57;52639.59;5010514;28;20034;-74
2023/06/22 04:08:51;;;;;;;17.30;10.65;;;;;;;-144.47;96.09;52653.50;5011424;28;20028;-74
2023/06/22 04:11:18;;;;;;;15.48;10.13;;;;;;;-144.47;95.72;52667.41;5011691;28;20065;-71
2023/06/22 04:13:44;;;;;;;16.63;9.88;;;;;;;-144.47;95.15;52679.31;5010513;28;20021;-71
2023/06/22 04:16:09;;;;;;;14.07;9.48;;;;;;;-144.47;95.18;52701.19;5010243;28;20021;-72
2023/06/22 04:18:35;;;;;;;15.95;10.48;;;;;;;-144.47;95.07;52669.41;5010840;28;20022;-73
2023/06/22 04:21:02;;;;;;;17.67;10.32;;;;;;;-144.47;95.51;52665.44;5011134;28;20022;-73
2023/06/22 04:23:27;;;;;;;17.38;10.55;;;;;;;-144.47;95.46;52665.44;4993083;28;20025;-74
2023/06/22 04:25:52;;;;;;;17.20;11.05;;;;;;;-144.47;95.70;52675.34;5010129;28;20056;-72
2023/06/22 04:28:18;;;;;;;21.33;11.88;;;;;;;-144.47;95.93;52651.53;5012611;28;20424;-72
2023/06/22 04:30:47;;;;;;;22.00;11.88;;;;;;;-144.47;96.70;52673.38;5011173;28;20448;-72
2023/06/22 04:33:15;;;;;;;20.00;12.73;;;;;;;-144.47;98.81;52643.56;5011133;28;20037;-73
2023/06/22 04:35:41;;;;;;;18.73;12.18;;;;;;;-144.47;99.44;52661.44;5010067;28;20025;-73
2023/06/22 04:38:07;;;;;;;17.73;12.27;;;;;;;-144.47;99.77;52653.50;5003148;28;20040;-72
2023/06/22 04:40:33;;;;;;;21.67;12.68;;;;;;;-144.47;99.81;52645.56;5011189;28;20030;-71
2023/06/22 04:43:02;;;;;;;18.33;11.15;;;;;;;-144.47;100.00;52681.31;5011061;28;20044;-72
2023/06/22 04:45:27;;;;;;;17.27;11.45;;;;;;;-144.47;100.00;52663.44;5011182;28;20262;-75
2023/06/22 04:47:53;;;;;;;19.35;11.73;;;;;;;-144.47;100.00;52681.31;5000708;28;20036;-69
2023/06/22 04:50:21;;;;;;;19.27;12.02;;;;;;;-144.47;100.00;52665.44;5016052;28;20025;-73
2023/06/22 04:52:46;;;;;;;17.42;10.80;;;;;;;-144.47;100.00;52689.25;5017806;28;20098;-74
2023/06/22 04:55:12;;;;;;;24.60;12.68;;;;;;;-144.47;100.00;52665.44;5014401;28;20068;-71
2023/06/22 04:57:39;;;;;;;17.05;11.40;;;;;;;-144.47;100.00;52681.31;5016222;28;20032;-74
2023/06/22 05:00:12;;;;;;;21.25;11.65;;;;;;;-144.47;100.00;52681.31;4993401;28;20045;-71
2023/06/22 05:02:40;;;;;;;18.27;12.13;;;;;;;-144.47;99.86;52677.34;5003657;28;20018;-70
2023/06/22 05:05:07;;;;;;;20.55;11.93;;;;;;;-144.47;99.45;52699.19;4989810;28;20018;-70
2023/06/22 05:07:36;;;;;;;20.27;12.13;;;;;;;-144.47;99.15;52679.31;5008155;28;20053;-74
2023/06/22 05:10:02;;;;;;;26.05;12.38;;;;;;;-144.47;98.74;52673.38;4993796;28;20026;-71
2023/06/22 05:12:29;;;;;;;23.27;12.60;;;;;;;-144.47;98.01;52687.28;5009417;28;20636;-70
2023/06/22 05:14:55;;;;;;;27.35;12.43;;;;;;;-144.47;100.00;52693.22;5008556;28;20022;-71
2023/06/22 05:17:21;;;;;;;19.13;11.95;;;;;;;-144.47;99.96;52675.34;5008219;28;20022;-71
2023/06/22 05:19:49;;;;;;;20.50;12.88;;;;;;;-144.47;99.31;52689.25;5010222;28;20021;-75
2023/06/22 05:22:15;;;;;;;20.00;12.23;;;;;;;-144.47;98.63;52689.25;5008845;28;20529;-73
2023/06/22 05:24:42;;;;;;;22.65;11.63;;;;;;;-144.47;98.43;52689.25;5015755;28;20125;-72
2023/06/22 05:27:07;;;;;;;20.00;11.85;;;;;;;-144.47;97.99;52669.41;5017768;28;20028;-72
2023/06/22 05:29:32;;;;;;;20.13;12.00;;;;;;;-144.47;98.03;52681.31;5016251;28;20037;-70
2023/06/22 05:31:58;;;;;;;21.55;12.45;;;;;;;-144.47;97.73;52677.34;5007922;28;20030;-74
2023/06/22 05:34:23;;;;;;;22.63;12.23;;;;;;;-144.47;97.46;52679.31;4989588;28;20028;-75
2023/06/22 05:36:48;;;;;;;20.70;12.38;;;;;;;-144.47;97.98;52689.25;5009557;28;20033;-72
2023/06/22 05:39:15;;;;;;;20.85;11.80;;;;;;;-144.47;97.46;52693.22;5013264;28;20123;-73
2023/06/22 05:41:43;;;;;;;19.80;11.60;;;;;;;-144.47;96.80;52681.31;5012283;28;20036;-73
2023/06/22 05:44:08;;;;;;;21.00;12.00;;;;;;;-144.47;96.12;52657.47;5012868;28;20038;-75
2023/06/22 05:46:34;;;;;;;21.20;12.05;;;;;;;-144.47;94.75;52679.31;5014975;28;20037;-71
2023/06/22 05:49:00;;;;;;;23.08;11.77;;;;;;;-144.47;93.76;52707.13;4994638;28;20415;-72
2023/06/22 05:51:25;;;;;;;17.00;12.43;;;;;;;-144.47;92.88;52703.16;5011878;28;20522;-73
2023/06/22 05:53:50;;;;;;;17.58;10.88;;;;;;;-144.47;91.14;52679.31;5015046;28;20060;-69
2023/06/22 05:56:17;;;;;;;17.35;11.25;;;;;;;-144.47;89.10;52669.41;5015106;28;20421;-70
2023/06/22 05:58:42;;;;;;;18.45;12.00;;;;;;;-144.47;89.15;52709.13;5013189;28;20088;-71
2023/06/22 06:01:07;;;;;;;18.67;12.55;;;;;;;-144.47;88.51;52699.19;5005677;28;20018;-72
2023/06/22 06:03:33;;;;;;;23.35;10.15;;;;;;;-144.47;87.12;52713.09;5036951;22;20037;-68
2023/06/22 06:05:58;;;;;;;15.93;10.40;;;;;;;-144.47;86.26;52685.28;5029895;28;20029;-68
2023/06/22 06:08:25;;;;;;;17.00;10.23;;;;;;;-144.47;85.74;52691.25;5031066;28;20171;-68
2023/06/22 06:10:52;;;;;;;18.45;10.18;;;;;;;-144.47;84.89;52689.25;5031546;28;20105;-66
2023/06/22 06:13:18;;;;;;;16.60;9.43;;;;;;;-144.47;84.81;52687.28;5031325;28;20071;-68
2023/06/22 06:15:43;;;;;;;16.67;10.05;;;;;;;-144.47;82.92;52687.28;5030758;28;20025;-68
2023/06/22 06:18:09;;;;;;;18.67;10.18;;;;;;;-144.47;82.85;52693.22;5030496;28;20485;-69
2023/06/22 06:20:35;;;;;;;15.60;9.48;;;;;;;-144.47;81.82;52734.94;5007315;28;20128;-69
2023/06/22 06:23:00;;;;;;;15.02;9.40;;;;;;;-144.47;80.26;52721.03;5028357;28;20079;-66
2023/06/22 06:25:26;;;;;;;14.82;9.95;;;;;;;-144.47;79.71;52685.28;5023844;28;20116;-70
2023/06/22 06:27:54;;;;;;;20.63;10.55;;;;;;;-144.47;78.40;52697.19;5008360;28;20021;-68
2023/06/22 06:30:20;;;;;;;19.63;9.95;;;;;;;-144.47;78.09;52709.13;5030142;28;20051;-66
2023/06/22 06:32:46;;;;;;;27.33;8.95;;;;;;;-144.47;76.76;52705.16;5027396;28;20041;-68
2023/06/22 06:35:14;;;;;;;16.63;9.55;;;;;;;-144.47;76.65;52689.25;5030166;28;20013;-69
2023/06/22 06:37:41;;;;;;;17.90;9.80;;;;;;;-144.47;76.72;52701.19;5030168;28;20021;-68
2023/06/22 06:40:10;;;;;;;15.93;8.87;;;;;;;-144.47;77.55;52697.19;5026978;28;20021;-68
2023/06/22 06:42:37;;;;;;;;;;;;;;;-144.47;77.51;52701.19;5023189;28;20095;-69
2023/06/22 06:45:04;;;;;;;15.45;9.10;;;;;;;-144.47;75.71;52705.16;5023363;28;19912;-69
2023/06/22 06:47:29;;;;;;;14.07;9.00;;;;;;;-144.47;74.85;52699.19;5004613;28;20025;-69
2023/06/22 06:49:54;;;;;;;17.63;9.38;;;;;;;-144.47;74.01;52707.13;5023239;28;20434;-68
2023/06/22 06:52:20;;;;;;;18.00;8.98;;;;;;;-144.47;72.97;52705.16;5022611;28;20690;-68
2023/06/22 06:54:45;;;;;;;17.85;8.63;;;;;;;-144.47;72.40;52697.19;5022735;28;20100;-69
2023/06/22 06:57:13;;;;;;;16.58;9.05;;;;;;;-144.47;72.21;52728.97;5023010;28;20040;-68
2023/06/22 06:59:38;;;;;;;15.98;7.97;;;;;;;-144.47;71.43;52721.03;5020926;28;20040;-68
2023/06/22 07:02:04;;;;;;;19.80;8.77;;;;;;;-144.47;70.85;52709.13;5022549;28;20013;-69
2023/06/22 07:04:30;;;;;;;18.45;8.27;;;;;;;-144.47;70.06;52713.09;5021587;28;20092;-69
2023/06/22 07:06:55;;;;;;;16.10;8.25;;;;;;;-144.47;69.65;52707.13;5005040;28;20512;-69
2023/06/22 07:09:21;;;;;;;18.13;8.85;;;;;;;-144.47;69.69;52734.94;5021856;28;20116;-70
2023/06/22 07:11:46;;;;;;;16.67;8.90;;;;;;;-144.47;68.21;52723.03;5022574;28;20862;-67
2023/06/22 07:14:11;;;;;;;18.17;7.70;;;;;;;-144.47;68.79;52734.94;5022329;28;20083;-68
2023/06/22 07:16:36;;;;;;;16.80;8.60;;;;;;;-144.47;67.88;52730.97;5022853;28;20161;-68
2023/06/22 07:19:02;;;;;;;11.55;7.97;;;;;;;-144.47;67.17;52725.00;5020974;28;20451;-68
2023/06/22 07:21:28;;;;;;;12.90;7.65;;;;;;;-144.47;67.28;52728.97;5021558;28;20462;-71
2023/06/22 07:23:54;;;;;;;18.60;7.85;;;;;;;-144.47;66.91;52740.91;5021907;28;20634;-69
2023/06/22 07:26:19;;;;;;;15.82;8.25;;;;;;;-144.47;66.23;52738.91;5004820;28;20533;-68
2023/06/22 07:28:44;;;;;;;13.63;7.47;;;;;;;-144.47;65.88;52717.06;5020716;28;20036;-68
2023/06/22 07:31:10;;;;;;;13.93;7.63;;;;;;;-144.47;64.38;52742.88;5022751;28;20041;-66
2023/06/22 07:33:35;;;;;;;15.35;8.45;;;;;;;-144.47;65.29;52752.81;5020233;28;20091;-69
2023/06/22 07:36:02;;;;;;;13.65;7.38;;;;;;;-144.47;64.79;52725.00;5021656;28;20331;-69
2023/06/22 07:38:27;;;;;;;15.27;8.05;;;;;;;-144.47;64.15;52748.84;5017552;28;20091;-69
2023/06/22 07:40:53;;;;;;;17.48;8.20;;;;;;;-144.47;64.26;52734.94;5022610;28;20033;-70
2023/06/22 07:43:19;;;;;;;16.77;7.97;;;;;;;-144.47;63.28;52728.97;5021931;28;20529;-66
2023/06/22 07:45:54;;;;;;;11.57;7.40;;;;;;;-144.47;62.68;52758.78;5025031;28;20041;-68
2023/06/22 07:48:22;;;;;;;12.20;6.97;;;;;;;-144.47;62.61;52732.94;5009039;28;20434;-69
2023/06/22 07:50:48;;;;;;;11.63;7.05;;;;;;;-144.47;62.38;52740.91;5028274;28;20516;-69
2023/06/22 07:53:14;;;;;;;13.93;7.70;;;;;;;-144.47;61.33;52752.81;5027212;28;20140;-68
2023/06/22 07:55:39;;;;;;;12.80;7.18;;;;;;;-144.47;60.21;52760.75;5028929;28;20021;-68
2023/06/22 07:58:05;;;;;;;14.18;7.35;;;;;;;-144.47;58.96;52764.72;5027764;28;20087;-68
2023/06/22 08:00:30;;;;;;;12.27;7.10;;;;;;;-144.47;58.93;52776.66;5020182;28;20616;-69
2023/06/22 08:02:56;;;;;;;16.00;7.53;;;;;;;-144.47;59.30;52772.69;5027036;28;20380;-69
2023/06/22 08:05:21;;;;;;;12.82;7.63;;;;;;;-144.47;60.31;52758.78;5027750;28;20025;-69
2023/06/22 08:07:47;;;;;;;10.95;6.97;;;;;;;-144.47;60.20;52760.75;5028145;28;20025;-67
2023/06/22 08:10:13;;;;;;;63.30;10.60;;;;;;;-144.47;60.66;52744.88;5028658;28;20415;-66
2023/06/22 08:12:40;;;;;;;16.58;7.53;;;;;;;-144.47;59.86;52788.56;5028119;28;20021;-69
2023/06/22 08:15:07;;;;;;;12.98;6.80;;;;;;;-144.47;60.27;52784.59;5028127;28;20044;-69
2023/06/22 08:17:32;;;;;;;14.73;6.88;;;;;;;-144.47;60.58;52744.88;5028397;28;20600;-65
2023/06/22 08:19:58;;;;;;;14.02;7.00;;;;;;;-144.47;60.32;52756.78;5027551;28;20036;-69
2023/06/22 08:22:23;;;;;;;15.82;7.03;;;;;;;-144.47;59.65;52756.78;5027904;28;20021;-66
2023/06/22 08:24:49;;;;;;;10.73;6.60;;;;;;;-144.47;59.95;52742.88;5032272;28;20010;-68
2023/06/22 08:27:18;;;;;;;17.75;7.13;;;;;;;-144.47;59.25;52778.63;5026122;28;20031;-69
2023/06/22 08:29:45;;;;;;;12.43;7.07;;;;;;;-144.47;59.70;52776.66;5027557;28;20315;-69
2023/06/22 08:32:11;;;;;;;16.40;7.20;;;;;;;-144.47;59.40;52772.69;5026793;28;20025;-69
2023/06/22 08:34:36;;;;;;;13.68;6.80;;;;;;;-144.47;57.59;52770.69;5027268;28;20029;-70
2023/06/22 08:37:06;;;;;;;11.23;7.10;;;;;;;-144.47;57.12;52788.56;5027204;28;20085;-67
2023/06/22 08:39:31;;;;;;;10.07;6.80;;;;;;;-144.47;56.88;52764.72;5024037;28;20021;-67
2023/06/22 08:41:57;;;;;;;13.85;6.63;;;;;;;-144.47;56.42;52796.50;5027972;28;20096;-68
2023/06/22 08:44:22;;;;;;;13.23;6.53;;;;;;;-144.47;56.31;52804.44;5024720;28;20083;-69
2023/06/22 08:46:47;;;;;;;12.63;7.15;;;;;;;-144.47;56.57;52806.44;4990178;28;20041;-68
2023/06/22 08:49:13;;;;;;;11.63;7.40;;;;;;;-144.47;55.68;52800.47;5024516;28;20379;-66
2023/06/22 08:51:38;;;;;;;12.25;7.20;;;;;;;-144.47;55.21;52788.56;5026397;28;20040;-69
2023/06/22 08:54:04;;;;;;;10.73;7.20;;;;;;;-144.47;55.51;52806.44;5022803;28;20087;-68
2023/06/22 08:56:30;;;;;;;13.73;7.30;;;;;;;-144.47;55.75;52778.63;5027816;28;20031;-66
2023/06/22 08:58:55;;;;;;;17.00;7.20;;;;;;;-144.47;55.08;52804.44;5026552;28;20092;-66
2023/06/22 09:01:21;;;;;;;9.93;7.20;;;;;;;-144.47;54.68;52804.44;5019506;28;20028;-69
2023/06/22 09:03:54;;;;;;;21.90;7.63;;;;;;;-144.47;54.46;52786.56;5025477;28;20422;-67
2023/06/22 09:06:21;;;;;;;17.90;6.75;;;;;;;-144.47;54.46;52802.47;5009393;28;20136;-68
2023/06/22 09:08:47;;;;;;;13.27;7.22;;;;;;;-144.47;53.30;52816.38;5027528;28;20029;-68
2023/06/22 09:11:12;;;;;;;11.00;6.45;;;;;;;-144.47;53.34;52820.34;5009858;28;20029;-68
2023/06/22 09:13:38;;;;;;;14.88;7.68;;;;;;;-144.47;52.67;52834.25;5027064;28;20447;-69
2023/06/22 09:16:03;;;;;;;13.70;6.97;;;;;;;-144.47;52.34;52802.47;5001113;28;20034;-68
2023/06/22 09:18:29;;;;;;;14.70;6.28;;;;;;;-144.47;51.35;52784.59;5023866;28;20108;-69
2023/06/22 09:20:54;;;;;;;12.07;5.65;;;;;;;-144.47;51.01;52824.31;5026989;28;20026;-69
2023/06/22 09:23:20;;;;;;;14.93;6.68;;;;;;;-144.47;50.78;52840.19;5023105;28;20029;-67
2023/06/22 09:25:47;;;;;;;10.38;6.25;;;;;;;-144.47;50.97;52802.47;5027424;28;20112;-68
2023/06/22 09:28:13;;;;;;;11.35;6.50;;;;;;;-144.47;50.71;52828.28;5026856;28;20517;-67
2023/06/22 09:30:38;;;;;;;10.40;5.68;;;;;;;-144.47;49.22;52826.31;5026087;28;20073;-69
2023/06/22 09:33:04;;;;;;;11.85;5.20;;;;;;;-144.47;48.71;52830.28;5019502;28;20033;-65
2023/06/22 09:35:29;;;;;;;10.73;5.70;;;;;;;-144.47;48.09;52832.25;5031587;28;20399;-69
2023/06/22 09:37:54;;;;;;;11.00;6.05;;;;;;;-144.47;48.04;52856.09;5027278;28;20045;-70
2023/06/22 09:40:20;;;;;;;15.90;6.32;;;;;;;-144.47;48.49;52836.22;5036756;28;20029;-66
2023/06/22 09:42:45;;;;;;;9.60;5.40;;;;;;;-144.47;48.15;52810.41;5032192;28;20018;-69
2023/06/22 09:45:11;;;;;;;12.60;6.10;;;;;;;-144.47;47.75;52840.19;5027355;28;20025;-69
2023/06/22 09:47:36;;;;;;;12.00;6.00;;;;;;;-144.47;48.15;52822.31;5027598;28;20017;-66
2023/06/22 09:50:02;;;;;;;9.38;5.65;;;;;;;-144.47;47.69;52810.41;5026414;28;20048;-67
2023/06/22 09:52:27;;;;;;;13.07;5.68;;;;;;;-144.47;47.71;52822.31;5027225;28;20445;-70
2023/06/22 09:54:52;;;;;;;13.80;5.70;;;;;;;-144.47;47.17;52828.28;5021351;28;20065;-68
2023/06/22 09:57:18;;;;;;;11.93;5.22;;;;;;;-144.47;46.52;52854.09;5019255;28;20025;-69
2023/06/22 09:59:43;;;;;;;9.32;5.82;;;;;;;-144.47;46.93;52850.13;5008151;28;20060;-69
2023/06/22 10:02:09;;;;;;;9.25;4.97;;;;;;;-144.47;46.05;52854.09;5026825;28;20018;-67
2023/06/22 10:04:35;;;;;;;7.85;5.13;;;;;;;-144.47;44.16;52881.91;5027429;28;20096;-70
2023/06/22 10:07:01;;;;;;;9.65;5.30;;;;;;;-144.47;43.61;52868.00;5019483;28;20028;-68
2023/06/22 10:09:27;;;;;;;13.30;4.97;;;;;;;-144.47;42.81;52862.06;5029956;28;20017;-69
2023/06/22 10:11:52;;;;;;;10.98;4.97;;;;;;;-144.47;43.99;52834.25;5029405;28;20494;-69
2023/06/22 10:14:18;;;;;;;8.25;4.93;;;;;;;-144.47;43.76;52846.16;5020677;28;20029;-68
2023/06/22 10:16:44;;;;;;;14.52;4.93;;;;;;;-144.47;43.94;52860.06;5003227;28;20063;-69
2023/06/22 10:19:10;;;;;;;11.43;5.20;;;;;;;-144.47;43.69;52824.31;5016104;28;20025;-67
2023/06/22 10:21:35;;;;;;;8.82;5.10;;;;;;;-144.47;43.20;52836.22;5024185;28;20040;-68
2023/06/22 10:24:05;;;;;;;9.05;5.20;;;;;;;-144.47;44.30;52875.94;5029529;28;20108;-66
2023/06/22 10:26:32;;;;;;;16.73;5.85;;;;;;;-144.47;44.96;52844.19;5030213;28;20442;-69
2023/06/22 10:28:57;;;;;;;8.23;5.90;;;;;;;-144.47;44.58;52852.13;5030647;28;20467;-67
2023/06/22 10:31:23;;;;;;;7.38;4.97;;;;;;;-144.47;43.84;52871.97;5029767;28;20056;-70
2023/06/22 10:33:49;;;;;;;7.93;5.20;;;;;;;-144.47;43.29;52848.16;5029778;28;20108;-65
2023/06/22 10:36:15;;;;;;;7.95;5.05;;;;;;;-144.47;43.24;52877.94;5029273;28;20120;-67
2023/06/22 10:38:40;;;;;;;9.90;5.30;;;;;;;-144.47;43.29;52889.84;5029910;28;20026;-67
2023/06/22 10:41:05;;;;;;;9.50;4.72;;;;;;;-144.47;43.53;52864.03;5030180;28;20025;-70
2023/06/22 10:43:31;;;;;;;10.00;5.15;;;;;;;-144.47;43.42;52866.03;5029492;28;20029;-66
2023/06/22 10:45:56;;;;;;;12.57;5.78;;;;;;;-144.47;43.52;52887.88;5029438;28;20022;-66
2023/06/22 10:48:21;;;;;;;9.02;5.22;;;;;;;-144.47;42.99;52907.72;5029358;28;20494;-67
2023/06/22 10:50:47;;;;;;;8.32;5.22;;;;;;;-144.47;42.72;52903.75;5028697;28;20033;-67
2023/06/22 10:53:12;;;;;;;9.13;5.38;;;;;;;-144.47;42.33;52909.72;5011591;28;20121;-67
2023/06/22 10:55:38;;;;;;;8.02;4.80;;;;;;;-144.47;42.07;52903.75;5029497;28;20395;-66
2023/06/22 10:58:03;;;;;;;9.88;5.22;;;;;;;-144.47;41.53;52939.50;5011355;28;20584;-66
2023/06/22 11:00:28;;;;;;;8.13;4.90;;;;;;;-144.47;41.51;52919.66;5025787;28;20386;-67
2023/06/22 11:02:58;;;;;;;10.80;5.13;;;;;;;-144.47;41.85;52927.59;5029664;28;20343;-68
2023/06/22 11:05:23;;;;;;;14.63;4.75;;;;;;;-144.47;41.77;52897.81;5028516;28;20479;-69